createdAt,value
2023-03-26T00:01:21.372Z,100.00
2023-03-26T00:03:53.651Z,100.00
2023-03-26T00:06:23.019Z,100.00
2023-03-26T00:08:50.864Z,100.00
2023-03-26T00:11:20.042Z,100.00
2023-03-26T00:13:47.685Z,100.00
2023-03-26T00:16:17.238Z,100.00
2023-03-26T00:18:44.670Z,100.00
2023-03-26T00:21:14.758Z,100.00
2023-03-26T00:23:42.129Z,100.00
2023-03-26T00:26:10.779Z,100.00
2023-03-26T00:28:40.558Z,100.00
2023-03-26T00:31:09.926Z,100.00
2023-03-26T00:33:38.565Z,100.00
2023-03-26T00:36:10.038Z,100.00
2023-03-26T00:38:39.284Z,100.00
2023-03-26T00:41:18.002Z,100.00
2023-03-26T00:43:49.301Z,100.00
2023-03-26T00:46:18.015Z,100.00
2023-03-26T00:48:46.234Z,100.00
2023-03-26T00:51:18.015Z,100.00
2023-03-26T00:53:46.444Z,100.00
2023-03-26T00:56:14.272Z,100.00
2023-03-26T00:58:41.019Z,100.00
2023-03-26T01:01:17.222Z,100.00
2023-03-26T01:03:57.108Z,100.00
2023-03-26T01:06:36.062Z,100.00
2023-03-26T01:09:12.736Z,100.00
2023-03-26T01:11:39.485Z,100.00
2023-03-26T01:14:11.077Z,100.00
2023-03-26T01:16:45.438Z,100.00
2023-03-26T01:19:30.004Z,100.00
2023-03-26T01:21:58.338Z,100.00
2023-03-26T01:24:24.991Z,100.00
2023-03-26T01:27:17.920Z,100.00
2023-03-26T01:30:05.207Z,100.00
2023-03-26T01:32:48.713Z,100.00
2023-03-26T01:35:30.733Z,100.00
2023-03-26T01:38:11.610Z,100.00
2023-03-26T01:41:04.888Z,100.00
2023-03-26T01:43:38.990Z,100.00
2023-03-26T01:46:09.341Z,100.00
2023-03-26T01:48:39.506Z,100.00
2023-03-26T01:51:07.048Z,100.00
2023-03-26T01:53:39.158Z,100.00
2023-03-26T01:56:10.943Z,100.00
2023-03-26T01:58:41.751Z,100.00
2023-03-26T02:01:24.465Z,100.00
2023-03-26T02:03:56.297Z,100.00
2023-03-26T02:06:34.470Z,100.00
2023-03-26T02:09:08.026Z,100.00
2023-03-26T02:11:37.708Z,100.00
2023-03-26T02:14:06.132Z,100.00
2023-03-26T02:16:33.105Z,100.00
2023-03-26T02:19:00.389Z,100.00
2023-03-26T02:21:28.583Z,100.00
2023-03-26T02:24:02.865Z,100.00
2023-03-26T02:26:31.861Z,100.00
2023-03-26T02:28:59.003Z,100.00
2023-03-26T02:31:26.443Z,100.00
2023-03-26T02:33:56.687Z,100.00
2023-03-26T02:38:55.696Z,100.00
2023-03-26T02:41:22.554Z,100.00
2023-03-26T02:43:49.171Z,100.00
2023-03-26T02:46:16.127Z,100.00
2023-03-26T02:48:44.049Z,100.00
2023-03-26T02:51:11.008Z,100.00
2023-03-26T02:53:39.506Z,100.00
2023-03-26T02:56:06.945Z,100.00
2023-03-26T02:58:33.727Z,100.00
2023-03-26T03:01:03.307Z,100.00
2023-03-26T03:03:31.203Z,100.00
2023-03-26T03:05:58.272Z,100.00
2023-03-26T03:08:28.240Z,100.00
2023-03-26T03:11:00.934Z,100.00
2023-03-26T03:13:28.730Z,100.00
2023-03-26T03:15:56.288Z,100.00
2023-03-26T03:18:23.259Z,100.00
2023-03-26T03:20:50.360Z,100.00
2023-03-26T03:23:17.417Z,100.00
2023-03-26T03:25:44.144Z,100.00
2023-03-26T03:28:11.253Z,100.00
2023-03-26T03:30:38.179Z,100.00
2023-03-26T03:33:06.196Z,100.00
2023-03-26T03:35:33.729Z,100.00
2023-03-26T03:38:01.029Z,100.00
2023-03-26T03:40:28.016Z,100.00
2023-03-26T03:42:54.732Z,100.00
2023-03-26T03:45:21.487Z,100.00
2023-03-26T03:47:48.468Z,100.00
2023-03-26T03:50:15.497Z,100.00
2023-03-26T03:52:42.125Z,100.00
2023-03-26T03:55:10.658Z,100.00
2023-03-26T03:57:37.368Z,100.00
2023-03-26T04:00:06.844Z,100.00
2023-03-26T04:02:35.163Z,100.00
2023-03-26T04:05:02.968Z,100.00
2023-03-26T04:07:33.350Z,100.00
2023-03-26T04:10:02.045Z,100.00
2023-03-26T04:12:30.000Z,100.00
2023-03-26T04:14:56.766Z,100.00
2023-03-26T04:17:23.446Z,100.00
2023-03-26T04:19:53.112Z,100.00
2023-03-26T04:22:19.886Z,100.00
2023-03-26T04:24:48.863Z,100.00
2023-03-26T04:27:19.035Z,100.00
2023-03-26T04:29:49.951Z,100.00
2023-03-26T04:32:26.762Z,100.00
2023-03-26T04:34:53.740Z,100.00
2023-03-26T04:37:27.515Z,100.00
2023-03-26T04:39:55.305Z,100.00
2023-03-26T04:42:22.516Z,100.00
2023-03-26T04:44:52.267Z,100.00
2023-03-26T04:47:19.203Z,100.00
2023-03-26T04:49:48.830Z,100.00
2023-03-26T04:52:16.084Z,100.00
2023-03-26T04:54:46.356Z,100.00
2023-03-26T04:57:22.434Z,100.00
2023-03-26T04:59:50.187Z,100.00
2023-03-26T05:02:18.154Z,100.00
2023-03-26T05:04:49.986Z,100.00
2023-03-26T05:07:25.172Z,100.00
2023-03-26T05:09:51.973Z,100.00
2023-03-26T05:12:18.793Z,100.00
2023-03-26T05:14:45.408Z,100.00
2023-03-26T05:17:15.084Z,100.00
2023-03-26T05:19:41.798Z,100.00
2023-03-26T05:22:08.456Z,100.00
2023-03-26T05:24:35.525Z,100.00
2023-03-26T05:27:02.153Z,100.00
2023-03-26T05:29:28.827Z,100.00
2023-03-26T05:31:55.576Z,100.00
2023-03-26T05:34:26.459Z,100.00
2023-03-26T05:36:53.197Z,100.00
2023-03-26T05:39:22.807Z,100.00
2023-03-26T05:41:50.201Z,100.00
2023-03-26T05:44:19.401Z,100.00
2023-03-26T05:46:46.132Z,100.00
2023-03-26T05:49:12.804Z,100.00
2023-03-26T05:51:39.421Z,100.00
2023-03-26T05:54:06.030Z,100.00
2023-03-26T05:56:32.714Z,100.00
2023-03-26T05:58:59.448Z,100.00
2023-03-26T06:01:26.125Z,100.00
2023-03-26T06:03:52.791Z,100.00
2023-03-26T06:06:20.904Z,100.00
2023-03-26T06:09:01.860Z,100.00
2023-03-26T06:11:29.909Z,100.00
2023-03-26T06:13:56.567Z,100.00
2023-03-26T06:16:27.333Z,100.00
2023-03-26T06:18:56.727Z,100.00
2023-03-26T06:21:25.661Z,100.00
2023-03-26T06:23:53.084Z,100.00
2023-03-26T06:26:20.775Z,100.00
2023-03-26T06:28:47.875Z,100.00
2023-03-26T06:31:14.550Z,100.00
2023-03-26T06:33:41.201Z,100.00
2023-03-26T06:36:08.268Z,100.00
2023-03-26T06:38:34.892Z,100.00
2023-03-26T06:41:06.293Z,100.00
2023-03-26T06:43:33.946Z,100.00
2023-03-26T06:46:04.369Z,100.00
2023-03-26T06:48:31.836Z,100.00
2023-03-26T06:50:58.461Z,100.00
2023-03-26T06:53:25.286Z,100.00
2023-03-26T06:55:53.847Z,100.00
2023-03-26T06:58:21.020Z,100.00
2023-03-26T07:00:48.906Z,100.00
2023-03-26T07:03:17.368Z,100.00
2023-03-26T07:05:44.097Z,100.00
2023-03-26T07:08:10.842Z,100.00
2023-03-26T07:10:37.825Z,100.00
2023-03-26T07:13:04.522Z,100.00
2023-03-26T07:15:31.128Z,100.00
2023-03-26T07:17:58.027Z,100.00
2023-03-26T07:20:25.608Z,100.00
2023-03-26T07:22:53.179Z,100.00
2023-03-26T07:25:20.573Z,100.00
2023-03-26T07:28:12.352Z,100.00
2023-03-26T07:31:08.479Z,100.00
2023-03-26T07:33:49.415Z,100.00
2023-03-26T07:36:43.564Z,100.00
2023-03-26T07:39:19.322Z,100.00
2023-03-26T07:42:10.354Z,100.00
2023-03-26T07:44:46.049Z,100.00
2023-03-26T07:47:26.071Z,100.00
2023-03-26T07:49:54.802Z,100.00
2023-03-26T07:52:22.006Z,100.00
2023-03-26T07:54:49.333Z,100.00
2023-03-26T07:57:37.033Z,100.00
2023-03-26T08:00:12.300Z,100.00
2023-03-26T08:03:12.628Z,100.00
2023-03-26T08:05:52.403Z,100.00
2023-03-26T08:08:34.806Z,100.00
2023-03-26T08:11:39.011Z,100.00
2023-03-26T08:14:27.755Z,100.00
2023-03-26T08:16:59.304Z,100.00
2023-03-26T08:19:49.409Z,100.00
2023-03-26T08:22:27.384Z,100.00
2023-03-26T08:25:01.293Z,100.00
2023-03-26T08:27:41.301Z,100.00
2023-03-26T08:30:08.427Z,100.00
2023-03-26T08:32:35.688Z,100.00
2023-03-26T08:35:04.094Z,100.00
2023-03-26T08:37:30.691Z,100.00
2023-03-26T08:39:57.541Z,100.00
2023-03-26T08:42:57.390Z,100.00
2023-03-26T08:45:34.120Z,100.00
2023-03-26T08:48:22.400Z,100.00
2023-03-26T08:50:55.009Z,100.00
2023-03-26T08:53:46.011Z,100.00
2023-03-26T08:56:37.054Z,100.00
2023-03-26T08:59:12.917Z,100.00
2023-03-26T09:01:57.821Z,100.00
2023-03-26T09:04:46.987Z,100.00
2023-03-26T09:07:32.101Z,100.00
2023-03-26T09:10:42.280Z,100.00
2023-03-26T09:13:39.820Z,100.00
2023-03-26T09:16:27.879Z,100.00
2023-03-26T09:19:06.855Z,100.00
2023-03-26T09:21:58.152Z,100.00
2023-03-26T09:25:02.027Z,100.00
2023-03-26T09:27:59.074Z,100.00
2023-03-26T09:30:43.877Z,100.00
2023-03-26T09:33:11.700Z,100.00
2023-03-26T09:36:17.090Z,100.00
2023-03-26T09:39:07.497Z,100.00
2023-03-26T09:42:06.852Z,100.00
2023-03-26T09:44:59.889Z,98.20
2023-03-26T09:47:50.021Z,100.00
2023-03-26T09:50:25.963Z,97.48
2023-03-26T09:53:11.028Z,96.31
2023-03-26T09:55:48.666Z,98.03
2023-03-26T09:58:24.249Z,97.24
2023-03-26T10:01:05.780Z,93.69
2023-03-26T10:03:54.767Z,96.51
2023-03-26T10:06:44.884Z,94.55
2023-03-26T10:09:42.142Z,95.76
2023-03-26T10:12:08.744Z,96.32
2023-03-26T10:14:48.472Z,94.14
2023-03-26T10:17:34.455Z,97.77
2023-03-26T10:20:29.081Z,96.00
2023-03-26T10:23:35.850Z,97.46
2023-03-26T10:26:33.478Z,98.79
2023-03-26T10:29:23.330Z,95.19
2023-03-26T10:32:09.969Z,95.06
2023-03-26T10:34:48.361Z,95.37
2023-03-26T10:37:48.960Z,92.19
2023-03-26T10:40:42.826Z,87.05
2023-03-26T10:43:37.029Z,89.16
2023-03-26T10:46:36.563Z,87.67
2023-03-26T10:49:21.796Z,88.67
2023-03-26T10:51:55.026Z,88.57
2023-03-26T10:54:56.341Z,87.45
2023-03-26T10:57:51.365Z,89.38
2023-03-26T11:00:25.020Z,86.66
2023-03-26T11:03:14.598Z,89.74
2023-03-26T11:06:06.125Z,87.83
2023-03-26T11:09:14.591Z,87.20
2023-03-26T11:12:25.713Z,85.92
2023-03-26T11:15:37.600Z,89.45
2023-03-26T11:18:26.165Z,91.75
2023-03-26T11:21:26.634Z,89.16
2023-03-26T11:24:14.875Z,94.62
2023-03-26T11:27:15.556Z,93.20
2023-03-26T11:29:43.095Z,89.81
2023-03-26T11:32:14.074Z,86.13
2023-03-26T11:34:49.352Z,87.72
2023-03-26T11:37:24.147Z,84.11
2023-03-26T11:39:56.839Z,86.54
2023-03-26T11:42:25.667Z,82.81
2023-03-26T11:44:58.773Z,85.44
2023-03-26T11:47:35.373Z,83.59
2023-03-26T11:50:03.523Z,83.54
2023-03-26T11:52:30.569Z,82.76
2023-03-26T11:54:58.658Z,83.09
2023-03-26T11:57:35.293Z,84.16
2023-03-26T12:00:16.254Z,85.35
2023-03-26T12:02:43.806Z,82.29
2023-03-26T12:05:18.561Z,83.18
2023-03-26T12:07:57.446Z,81.94
2023-03-26T12:10:40.044Z,81.02
2023-03-26T12:13:23.031Z,78.63
2023-03-26T12:15:49.665Z,77.59
2023-03-26T12:18:27.503Z,73.80
2023-03-26T12:21:10.286Z,74.90
2023-03-26T12:23:43.662Z,73.36
2023-03-26T12:26:31.788Z,72.60
2023-03-26T12:29:06.861Z,74.89
2023-03-26T12:32:01.525Z,71.71
2023-03-26T12:34:37.110Z,72.76
2023-03-26T12:37:06.132Z,69.65
2023-03-26T12:40:07.522Z,70.50
2023-03-26T12:44:47.212Z,67.92
2023-03-26T12:45:24.239Z,65.90
2023-03-26T12:47:59.507Z,68.08
2023-03-26T12:51:01.901Z,68.31
2023-03-26T12:54:03.158Z,73.60
2023-03-26T12:57:20.525Z,71.27
2023-03-26T13:00:25.282Z,76.69
2023-03-26T13:02:54.676Z,73.16
2023-03-26T13:05:34.204Z,74.71
2023-03-26T13:08:19.329Z,75.90
2023-03-26T13:11:10.854Z,75.55
2023-03-26T13:13:37.606Z,75.23
2023-03-26T13:16:14.089Z,76.14
2023-03-26T13:18:43.641Z,74.64
2023-03-26T13:21:31.014Z,72.10
2023-03-26T13:24:27.938Z,75.38
2023-03-26T13:27:05.767Z,72.56
2023-03-26T13:30:01.051Z,72.63
2023-03-26T13:33:01.770Z,72.18
2023-03-26T13:35:49.504Z,75.53
2023-03-26T13:38:29.330Z,73.60
2023-03-26T13:41:20.328Z,73.06
2023-03-26T13:44:09.926Z,70.36
2023-03-26T13:47:11.021Z,70.85
2023-03-26T13:49:44.131Z,72.39
2023-03-26T13:52:17.538Z,69.31
2023-03-26T13:54:54.418Z,69.60
2023-03-26T13:57:43.186Z,70.98
2023-03-26T14:00:57.941Z,70.41
2023-03-26T14:03:24.767Z,71.58
2023-03-26T14:05:55.965Z,71.80
2023-03-26T14:08:32.733Z,73.42
2023-03-26T14:11:10.887Z,73.03
2023-03-26T14:13:51.539Z,73.67
2023-03-26T14:16:27.269Z,75.48
2023-03-26T14:19:12.421Z,75.33
2023-03-26T14:22:11.293Z,78.71
2023-03-26T14:24:59.020Z,76.09
2023-03-26T14:27:40.396Z,74.27
2023-03-26T14:30:16.185Z,75.43
2023-03-26T14:33:07.639Z,76.73
2023-03-26T14:35:43.057Z,75.74
2023-03-26T14:38:56.890Z,78.53
2023-03-26T14:41:29.634Z,76.55
2023-03-26T14:44:01.835Z,76.83
2023-03-26T14:46:28.341Z,75.01
2023-03-26T14:49:27.433Z,76.33
2023-03-26T14:52:18.360Z,78.43
2023-03-26T14:54:48.659Z,81.19
2023-03-26T14:57:24.097Z,78.23
2023-03-26T15:00:15.683Z,78.32
2023-03-26T15:02:53.575Z,77.78
2023-03-26T15:05:27.189Z,78.07
2023-03-26T15:08:17.183Z,77.45
2023-03-26T15:11:11.047Z,81.03
2023-03-26T15:13:50.510Z,80.78
2023-03-26T15:16:52.464Z,80.37
2023-03-26T15:19:37.041Z,79.85
2023-03-26T15:22:40.924Z,79.03
2023-03-26T15:25:45.371Z,78.59
2023-03-26T15:28:26.066Z,79.84
2023-03-26T15:31:31.799Z,78.44
2023-03-26T15:34:31.145Z,83.62
2023-03-26T15:37:34.985Z,83.61
2023-03-26T15:40:26.074Z,82.89
2023-03-26T15:43:01.967Z,81.92
2023-03-26T15:45:35.924Z,82.94
2023-03-26T15:48:11.078Z,81.51
2023-03-26T15:50:56.318Z,82.69
2023-03-26T15:53:43.601Z,84.11
2023-03-26T15:56:37.834Z,84.32
2023-03-26T15:59:23.490Z,89.17
2023-03-26T16:02:22.818Z,89.69
2023-03-26T16:05:21.363Z,90.73
2023-03-26T16:07:53.085Z,87.94
2023-03-26T16:10:51.320Z,86.84
2023-03-26T16:13:38.080Z,89.67
2023-03-26T16:16:04.741Z,86.69
2023-03-26T16:18:33.004Z,87.64
2023-03-26T16:21:32.800Z,89.08
2023-03-26T16:24:02.801Z,89.56
2023-03-26T16:26:45.492Z,88.94
2023-03-26T16:29:15.753Z,89.03
2023-03-26T16:32:10.326Z,91.77
2023-03-26T16:34:42.052Z,92.89
2023-03-26T16:37:36.818Z,90.22
2023-03-26T16:40:20.699Z,92.70
2023-03-26T16:43:09.274Z,91.19
2023-03-26T16:46:02.499Z,91.54
2023-03-26T16:48:34.921Z,89.70
2023-03-26T16:51:16.988Z,90.93
2023-03-26T16:53:52.671Z,92.63
2023-03-26T16:56:31.119Z,94.14
2023-03-26T16:59:43.028Z,93.75
2023-03-26T17:02:41.772Z,95.47
2023-03-26T17:05:43.484Z,100.00
2023-03-26T17:08:16.465Z,98.52
2023-03-26T17:11:07.973Z,98.79
2023-03-26T17:13:55.171Z,92.93
2023-03-26T17:16:32.459Z,94.16
2023-03-26T17:19:14.108Z,93.07
2023-03-26T17:22:31.984Z,91.98
2023-03-26T17:25:04.967Z,94.77
2023-03-26T17:28:07.481Z,95.78
2023-03-26T17:30:52.925Z,95.89
2023-03-26T17:33:26.833Z,98.55
2023-03-26T17:36:21.348Z,100.00
2023-03-26T17:38:47.999Z,100.00
2023-03-26T17:41:55.469Z,100.00
2023-03-26T17:44:42.302Z,100.00
2023-03-26T17:47:20.092Z,100.00
2023-03-26T17:49:51.154Z,100.00
2023-03-26T17:52:23.060Z,100.00
2023-03-26T17:54:52.590Z,100.00
2023-03-26T17:57:22.239Z,100.00
2023-03-26T17:59:51.226Z,100.00
2023-03-26T18:02:22.467Z,100.00
2023-03-26T18:04:53.628Z,100.00
2023-03-26T18:07:29.463Z,100.00
2023-03-26T18:10:12.967Z,100.00
2023-03-26T18:13:01.998Z,100.00
2023-03-26T18:16:05.547Z,100.00
2023-03-26T18:18:35.351Z,100.00
2023-03-26T18:21:07.180Z,100.00
2023-03-26T18:23:41.270Z,100.00
2023-03-26T18:26:23.465Z,100.00
2023-03-26T18:28:53.315Z,100.00
2023-03-26T18:31:26.882Z,100.00
2023-03-26T18:33:59.385Z,100.00
2023-03-26T18:36:30.532Z,100.00
2023-03-26T18:39:00.891Z,100.00
2023-03-26T18:41:31.228Z,100.00
2023-03-26T18:44:03.005Z,100.00
2023-03-26T18:46:30.014Z,100.00
2023-03-26T18:48:58.751Z,100.00
2023-03-26T18:51:27.323Z,100.00
2023-03-26T18:54:04.873Z,100.00
2023-03-26T18:56:31.909Z,100.00
2023-03-26T18:59:02.536Z,100.00
2023-03-26T19:01:32.540Z,100.00
2023-03-26T19:04:04.046Z,100.00
2023-03-26T19:06:36.238Z,94.89
2023-03-26T19:09:23.810Z,100.00
2023-03-26T19:11:58.865Z,95.96
2023-03-26T19:14:27.093Z,96.19
2023-03-26T19:17:01.272Z,94.26
2023-03-26T19:19:33.779Z,93.58
2023-03-26T19:22:00.398Z,89.75
2023-03-26T19:24:27.559Z,90.79
2023-03-26T19:26:54.297Z,90.43
2023-03-26T19:29:33.456Z,87.01
2023-03-26T19:32:18.453Z,86.71
2023-03-26T19:34:47.134Z,83.56
2023-03-26T19:37:32.406Z,86.04
2023-03-26T19:40:14.258Z,85.17
2023-03-26T19:42:44.743Z,80.72
2023-03-26T19:45:23.392Z,81.22
2023-03-26T19:48:00.400Z,79.10
2023-03-26T19:50:36.906Z,81.80
2023-03-26T19:53:24.246Z,82.06
2023-03-26T19:56:18.823Z,80.91
2023-03-26T19:58:45.856Z,78.09
2023-03-26T20:01:33.550Z,81.07
2023-03-26T20:04:05.209Z,81.21
2023-03-26T20:06:43.069Z,78.92
2023-03-26T20:09:12.229Z,80.68
2023-03-26T20:11:39.924Z,81.80
2023-03-26T20:14:15.698Z,81.55
2023-03-26T20:16:45.346Z,80.37
2023-03-26T20:19:14.340Z,81.09
2023-03-26T20:21:41.718Z,82.36
2023-03-26T20:24:15.083Z,81.85
2023-03-26T20:26:42.632Z,84.18
2023-03-26T20:29:10.198Z,82.58
2023-03-26T20:31:37.621Z,82.92
2023-03-26T20:34:07.417Z,87.10
2023-03-26T20:36:35.609Z,85.58
2023-03-26T20:39:07.934Z,85.33
2023-03-26T20:41:36.053Z,87.00
2023-03-26T20:44:04.950Z,87.48
2023-03-26T20:46:33.200Z,88.04
2023-03-26T20:49:00.193Z,86.57
2023-03-26T20:51:28.485Z,86.35
2023-03-26T20:53:55.811Z,86.21
2023-03-26T20:56:22.746Z,90.50
2023-03-26T20:58:54.812Z,88.97
2023-03-26T21:01:27.856Z,89.16
2023-03-26T21:03:54.647Z,86.71
2023-03-26T21:06:21.452Z,88.11
2023-03-26T21:08:48.294Z,85.93
2023-03-26T21:11:15.622Z,87.79
2023-03-26T21:14:02.000Z,89.11
2023-03-26T21:16:29.958Z,86.42
2023-03-26T21:18:57.456Z,84.41
2023-03-26T21:21:47.648Z,91.03
2023-03-26T21:24:59.603Z,88.46
2023-03-26T21:27:39.335Z,86.82
2023-03-26T21:30:16.844Z,83.15
2023-03-26T21:32:44.972Z,81.81
2023-03-26T21:35:16.343Z,80.70
2023-03-26T21:37:45.701Z,84.76
2023-03-26T21:40:16.733Z,83.69
2023-03-26T21:42:47.333Z,84.30
2023-03-26T21:45:14.668Z,85.61
2023-03-26T21:47:43.164Z,83.92
2023-03-26T21:50:13.500Z,82.67
2023-03-26T21:52:47.219Z,85.23
2023-03-26T21:55:19.085Z,87.29
2023-03-26T21:58:13.281Z,88.97
2023-03-26T22:00:54.123Z,87.05
2023-03-26T22:03:30.337Z,86.25
2023-03-26T22:06:12.724Z,85.17
2023-03-26T22:08:41.399Z,86.76
2023-03-26T22:11:11.363Z,86.93
2023-03-26T22:13:38.922Z,87.59
2023-03-26T22:16:07.421Z,87.11
2023-03-26T22:18:34.160Z,88.02
2023-03-26T22:21:01.607Z,88.23
2023-03-26T22:23:34.369Z,88.77
2023-03-26T22:26:01.117Z,90.35
2023-03-26T22:28:27.742Z,89.72
2023-03-26T22:30:54.650Z,91.79
2023-03-26T22:33:21.782Z,90.03
2023-03-26T22:35:48.472Z,90.54
2023-03-26T22:38:17.059Z,92.16
2023-03-26T22:40:43.930Z,94.27
2023-03-26T22:43:10.553Z,92.87
2023-03-26T22:45:37.757Z,92.57
2023-03-26T22:48:04.757Z,93.56
2023-03-26T22:50:32.392Z,94.56
2023-03-26T22:52:59.049Z,94.96
2023-03-26T22:55:28.731Z,98.15
2023-03-26T22:57:56.917Z,96.01
2023-03-26T23:00:23.954Z,99.14
2023-03-26T23:02:50.617Z,100.00
2023-03-26T23:05:18.022Z,100.00
2023-03-26T23:07:46.130Z,96.97
2023-03-26T23:10:13.258Z,98.50
2023-03-26T23:12:40.334Z,100.00
2023-03-26T23:15:08.049Z,99.41
2023-03-26T23:17:37.608Z,98.01
2023-03-26T23:20:12.600Z,98.58
2023-03-26T23:22:39.243Z,98.10
2023-03-26T23:25:10.106Z,97.20
2023-03-26T23:27:37.191Z,97.22
2023-03-26T23:30:05.266Z,100.00
2023-03-26T23:32:31.945Z,100.00
2023-03-26T23:34:59.703Z,97.76
2023-03-26T23:37:26.778Z,100.00
2023-03-26T23:39:53.705Z,100.00
2023-03-26T23:42:28.918Z,96.73
2023-03-26T23:44:57.038Z,98.37
2023-03-26T23:47:23.923Z,99.90
2023-03-26T23:49:50.907Z,100.00
2023-03-26T23:52:17.572Z,99.98
2023-03-26T23:54:45.168Z,98.68
2023-03-26T23:57:11.902Z,98.85
2023-03-26T23:59:41.447Z,100.00
